createdAt,value
2022-10-23T00:01:48.033Z,97882.38
2022-10-23T00:04:19.454Z,97878.03
2022-10-23T00:06:48.372Z,97879.88
2022-10-23T00:09:22.379Z,97880.84
2022-10-23T00:11:52.826Z,97882.69
2022-10-23T00:14:24.174Z,97879.34
2022-10-23T00:16:52.789Z,97881.31
2022-10-23T00:19:21.059Z,97879.66
2022-10-23T00:21:49.349Z,97882.47
2022-10-23T00:24:19.021Z,97886.13
2022-10-23T00:26:47.241Z,97884.44
2022-10-23T00:29:15.513Z,97880.44
2022-10-23T00:31:43.844Z,97883.09
2022-10-23T00:34:12.071Z,97874.41
2022-10-23T00:36:41.155Z,97870.94
2022-10-23T00:39:09.356Z,97869.41
2022-10-23T00:41:38.951Z,97877.53
2022-10-23T00:44:11.315Z,97877.88
2022-10-23T00:46:41.315Z,97877.31
2022-10-23T00:51:48.755Z,97885.75
2022-10-23T00:54:25.239Z,97893.88
2022-10-23T00:56:59.481Z,97883.38
2022-10-23T00:59:28.303Z,97881.88
2022-10-23T01:01:57.244Z,97885.50
2022-10-23T01:04:26.923Z,97871.69
2022-10-23T01:07:03.634Z,97874.50
2022-10-23T01:09:38.090Z,97877.31
2022-10-23T01:12:14.573Z,97867.81
2022-10-23T01:14:54.735Z,97873.28
2022-10-23T01:17:32.094Z,97875.13
2022-10-23T01:20:20.234Z,97880.59
2022-10-23T01:23:16.178Z,97889.69
2022-10-23T01:26:09.950Z,97895.16
2022-10-23T01:28:46.968Z,97886.50
2022-10-23T01:31:20.072Z,97881.03
2022-10-23T01:33:55.370Z,97881.84
2022-10-23T01:36:28.753Z,97874.19
2022-10-23T01:39:01.398Z,97878.69
2022-10-23T01:41:34.904Z,97882.47
2022-10-23T01:44:12.138Z,97880.09
2022-10-23T01:46:41.545Z,97876.78
2022-10-23T01:49:13.352Z,97876.25
2022-10-23T01:51:46.973Z,97869.56
2022-10-23T01:54:18.336Z,97871.69
2022-10-23T01:56:50.143Z,97869.19
2022-10-23T01:59:25.744Z,97871.16
2022-10-23T02:01:57.900Z,97870.63
2022-10-23T02:04:32.399Z,97868.28
2022-10-23T02:07:00.760Z,97863.09
2022-10-23T02:09:29.184Z,97865.38
2022-10-23T02:12:04.499Z,97858.53
2022-10-23T02:14:45.939Z,97858.00
2022-10-23T02:17:23.289Z,97852.03
2022-10-23T02:19:59.518Z,97840.84
2022-10-23T02:22:30.931Z,97832.19
2022-10-23T02:25:07.871Z,97828.00
2022-10-23T02:27:44.067Z,97817.69
2022-10-23T02:30:16.735Z,97814.34
2022-10-23T02:32:49.539Z,97826.94
2022-10-23T02:35:19.853Z,97819.97
2022-10-23T02:37:55.235Z,97822.94
2022-10-23T02:40:25.305Z,97822.25
2022-10-23T02:42:58.988Z,97821.38
2022-10-23T02:45:33.849Z,97823.53
2022-10-23T02:48:09.699Z,97818.38
2022-10-23T02:50:44.384Z,97830.09
2022-10-23T02:53:19.350Z,97825.22
2022-10-23T02:56:02.296Z,97836.84
2022-10-23T02:58:38.629Z,97829.19
2022-10-23T03:01:12.894Z,97818.13
2022-10-23T03:03:47.270Z,97818.28
2022-10-23T03:06:16.422Z,97815.91
2022-10-23T03:08:47.284Z,97812.59
2022-10-23T03:11:15.548Z,97810.09
2022-10-23T03:13:43.824Z,97812.88
2022-10-23T03:16:13.435Z,97813.84
2022-10-23T03:18:41.694Z,97824.75
2022-10-23T03:21:10.171Z,97817.94
2022-10-23T03:23:38.425Z,97810.13
2022-10-23T03:26:07.072Z,97801.63
2022-10-23T03:28:36.260Z,97801.09
2022-10-23T03:31:05.330Z,97807.53
2022-10-23T03:33:35.062Z,97802.38
2022-10-23T03:36:03.250Z,97801.66
2022-10-23T03:38:31.526Z,97799.31
2022-10-23T03:40:59.812Z,97797.66
2022-10-23T03:43:28.061Z,97805.91
2022-10-23T03:45:57.610Z,97807.84
2022-10-23T03:48:26.219Z,97801.19
2022-10-23T03:50:55.859Z,97806.47
2022-10-23T03:53:24.600Z,97803.13
2022-10-23T03:55:52.852Z,97801.47
2022-10-23T03:58:21.091Z,97803.41
2022-10-23T04:00:49.380Z,97796.47
2022-10-23T04:03:17.709Z,97802.56
2022-10-23T04:05:45.955Z,97800.06
2022-10-23T04:08:19.209Z,97803.72
2022-10-23T04:10:48.661Z,97808.31
2022-10-23T04:13:16.923Z,97800.50
2022-10-23T04:15:49.918Z,97792.03
2022-10-23T04:18:18.957Z,97794.53
2022-10-23T04:20:49.435Z,97797.47
2022-10-23T04:23:20.049Z,97803.06
2022-10-23T04:28:21.745Z,97815.19
2022-10-23T04:30:50.042Z,97808.34
2022-10-23T04:33:18.298Z,97803.06
2022-10-23T04:35:46.692Z,97796.22
2022-10-23T04:38:14.962Z,97795.38
2022-10-23T04:40:44.572Z,97799.03
2022-10-23T04:43:12.991Z,97800.84
2022-10-23T04:45:41.277Z,97798.03
2022-10-23T04:48:09.552Z,97792.88
2022-10-23T04:50:37.832Z,97792.88
2022-10-23T04:53:06.114Z,97792.03
2022-10-23T04:55:34.415Z,97799.19
2022-10-23T04:58:04.091Z,97789.53
2022-10-23T05:00:32.446Z,97779.91
2022-10-23T05:03:00.795Z,97784.22
2022-10-23T05:05:29.079Z,97778.94
2022-10-23T05:07:57.318Z,97783.28
2022-10-23T05:10:25.612Z,97781.72
2022-10-23T05:12:53.842Z,97779.91
2022-10-23T05:15:23.597Z,97780.91
2022-10-23T05:17:55.743Z,97781.88
2022-10-23T05:20:29.944Z,97786.34
2022-10-23T05:23:00.948Z,97788.16
2022-10-23T05:25:30.500Z,97785.50
2022-10-23T05:27:58.728Z,97790.66
2022-10-23T05:30:28.502Z,97790.53
2022-10-23T05:32:56.895Z,97788.84
2022-10-23T05:35:25.499Z,97792.47
2022-10-23T05:37:54.891Z,97796.25
2022-10-23T05:40:23.965Z,97790.94
2022-10-23T05:42:52.258Z,97788.31
2022-10-23T05:45:20.694Z,97785.66
2022-10-23T05:47:50.314Z,97783.00
2022-10-23T05:50:19.021Z,97791.81
2022-10-23T05:52:50.581Z,97797.91
2022-10-23T05:55:19.011Z,97786.50
2022-10-23T05:57:47.319Z,97795.25
2022-10-23T06:00:15.964Z,97802.13
2022-10-23T06:02:44.245Z,97801.28
2022-10-23T06:05:13.855Z,97797.63
2022-10-23T06:07:42.436Z,97805.28
2022-10-23T06:10:11.047Z,97808.78
2022-10-23T06:12:39.312Z,97812.97
2022-10-23T06:15:10.341Z,97810.16
2022-10-23T06:17:39.520Z,97811.69
2022-10-23T06:20:09.874Z,97810.03
2022-10-23T06:22:39.583Z,97802.63
2022-10-23T06:25:09.823Z,97802.47
2022-10-23T06:27:38.104Z,97805.00
2022-10-23T06:30:08.078Z,97804.69
2022-10-23T06:32:36.351Z,97799.25
2022-10-23T06:35:05.430Z,97798.25
2022-10-23T06:37:35.822Z,97809.44
2022-10-23T06:40:07.865Z,97799.63
2022-10-23T06:42:36.363Z,97804.66
2022-10-23T06:45:06.598Z,97800.88
2022-10-23T06:47:35.675Z,97805.91
2022-10-23T06:50:04.048Z,97806.72
2022-10-23T06:52:46.409Z,97798.16
2022-10-23T06:55:17.025Z,97803.03
2022-10-23T06:57:46.256Z,97797.44
2022-10-23T07:00:15.484Z,97807.47
2022-10-23T07:02:43.970Z,97799.91
2022-10-23T07:05:13.701Z,97800.28
2022-10-23T07:07:42.395Z,97813.25
2022-10-23T07:10:11.220Z,97816.16
2022-10-23T07:12:41.209Z,97810.44
2022-10-23T07:15:10.701Z,97803.69
2022-10-23T07:17:38.943Z,97804.78
2022-10-23T07:20:08.193Z,97799.03
2022-10-23T07:22:36.571Z,97799.25
2022-10-23T07:25:05.537Z,97804.13
2022-10-23T07:27:37.575Z,97796.69
2022-10-23T07:30:09.026Z,97802.22
2022-10-23T07:32:37.346Z,97805.13
2022-10-23T07:35:06.814Z,97803.81
2022-10-23T07:37:35.411Z,97796.25
2022-10-23T07:40:03.788Z,97795.78
2022-10-23T07:42:32.094Z,97802.28
2022-10-23T07:45:00.384Z,97800.84
2022-10-23T07:47:30.078Z,97792.25
2022-10-23T07:49:58.355Z,97793.63
2022-10-23T07:52:27.515Z,97786.03
2022-10-23T07:54:58.009Z,97793.22
2022-10-23T07:57:26.261Z,97783.97
2022-10-23T07:59:55.280Z,97787.66
2022-10-23T08:02:23.796Z,97772.09
2022-10-23T08:04:53.497Z,97764.50
2022-10-23T08:07:21.720Z,97774.50
2022-10-23T08:09:50.776Z,97773.03
2022-10-23T08:12:19.081Z,97774.41
2022-10-23T08:14:47.364Z,97769.28
2022-10-23T08:17:15.723Z,97761.50
2022-10-23T08:19:46.467Z,97764.53
2022-10-23T08:22:16.292Z,97759.56
2022-10-23T08:24:44.787Z,97761.09
2022-10-23T08:27:13.016Z,97764.94
2022-10-23T08:29:41.286Z,97772.13
2022-10-23T08:32:09.547Z,97761.16
2022-10-23T08:34:38.469Z,97759.34
2022-10-23T08:37:06.721Z,97754.88
2022-10-23T08:39:36.404Z,97754.91
2022-10-23T08:42:05.328Z,97752.44
2022-10-23T08:44:39.297Z,97752.28
2022-10-23T08:47:12.937Z,97756.66
2022-10-23T08:49:47.395Z,97762.34
2022-10-23T08:52:23.245Z,97768.22
2022-10-23T08:55:05.924Z,97761.34
2022-10-23T08:57:42.899Z,97752.03
2022-10-23T09:00:16.715Z,97750.69
2022-10-23T09:02:48.260Z,97757.53
2022-10-23T09:05:21.073Z,97756.34
2022-10-23T09:08:21.473Z,97749.34
2022-10-23T09:11:07.873Z,97748.34
2022-10-23T09:13:58.264Z,97751.75
2022-10-23T09:16:45.108Z,97749.22
2022-10-23T09:19:18.356Z,97751.16
2022-10-23T09:21:49.853Z,97749.91
2022-10-23T09:24:23.276Z,97747.16
2022-10-23T09:26:55.033Z,97743.22
2022-10-23T09:29:27.227Z,97733.88
2022-10-23T09:31:58.083Z,97736.06
2022-10-23T09:34:28.802Z,97728.72
2022-10-23T09:37:00.563Z,97725.31
2022-10-23T09:39:31.851Z,97726.03
2022-10-23T09:42:03.476Z,97728.34
2022-10-23T09:44:34.423Z,97727.25
2022-10-23T09:47:12.271Z,97713.97
2022-10-23T09:49:48.668Z,97713.22
2022-10-23T09:52:27.221Z,97707.22
2022-10-23T09:54:58.657Z,97713.31
2022-10-23T09:57:32.949Z,97720.69
2022-10-23T10:00:05.782Z,97705.34
2022-10-23T10:02:37.336Z,97701.72
2022-10-23T10:05:24.456Z,97693.25
2022-10-23T10:08:00.136Z,97683.44
2022-10-23T10:10:36.879Z,97677.97
2022-10-23T10:13:20.326Z,97676.44
2022-10-23T10:15:54.411Z,97658.38
2022-10-23T10:18:29.932Z,97669.22
2022-10-23T10:21:12.169Z,97670.53
2022-10-23T10:23:50.355Z,97677.88
2022-10-23T10:26:34.498Z,97673.72
2022-10-23T10:29:15.671Z,97665.38
2022-10-23T10:31:59.560Z,97669.63
2022-10-23T10:34:36.551Z,97651.94
2022-10-23T10:37:17.989Z,97646.81
2022-10-23T10:39:52.152Z,97634.94
2022-10-23T10:42:55.604Z,97638.28
2022-10-23T10:45:34.609Z,97636.06
2022-10-23T10:48:30.891Z,97632.00
2022-10-23T10:51:04.291Z,97641.16
2022-10-23T10:53:45.005Z,97625.44
2022-10-23T10:56:17.567Z,97621.31
2022-10-23T10:58:51.827Z,97619.84
2022-10-23T11:01:27.690Z,97604.94
2022-10-23T11:04:01.277Z,97601.81
2022-10-23T11:06:36.943Z,97613.59
2022-10-23T11:09:22.639Z,97610.66
2022-10-23T11:11:51.218Z,97610.00
2022-10-23T11:14:21.029Z,97607.03
2022-10-23T11:16:53.616Z,97614.50
2022-10-23T11:19:26.771Z,97616.50
2022-10-23T11:22:01.054Z,97619.59
2022-10-23T11:24:58.109Z,97606.00
2022-10-23T11:28:05.268Z,97599.91
2022-10-23T11:30:48.609Z,97596.97
2022-10-23T11:33:58.652Z,97590.25
2022-10-23T11:36:44.858Z,97575.56
2022-10-23T11:39:24.978Z,97572.19
2022-10-23T11:41:56.898Z,97572.56
2022-10-23T11:44:41.917Z,97565.53
2022-10-23T11:47:39.196Z,97564.91
2022-10-23T11:50:29.218Z,97567.47
2022-10-23T11:53:20.895Z,97561.88
2022-10-23T11:56:04.024Z,97563.81
2022-10-23T11:58:44.951Z,97557.19
2022-10-23T12:01:35.726Z,97555.75
2022-10-23T12:04:18.181Z,97548.75
2022-10-23T12:06:52.432Z,97542.75
2022-10-23T12:09:28.359Z,97530.75
2022-10-23T12:12:17.106Z,97522.66
2022-10-23T12:14:47.870Z,97526.19
2022-10-23T12:17:36.947Z,97511.72
2022-10-23T12:20:24.516Z,97510.25
2022-10-23T12:23:17.465Z,97510.47
2022-10-23T12:26:16.126Z,97505.72
2022-10-23T12:28:55.323Z,97503.00
2022-10-23T12:31:37.339Z,97494.28
2022-10-23T12:34:20.006Z,97499.00
2022-10-23T12:37:04.668Z,97486.34
2022-10-23T12:39:37.422Z,97496.69
2022-10-23T12:42:07.608Z,97495.44
2022-10-23T12:44:35.845Z,97499.16
2022-10-23T12:47:05.559Z,97493.97
2022-10-23T12:49:35.575Z,97483.81
2022-10-23T12:52:06.549Z,97483.59
2022-10-23T12:54:41.521Z,97483.59
2022-10-23T12:57:22.604Z,97477.53
2022-10-23T12:59:52.668Z,97470.88
2022-10-23T13:02:25.945Z,97471.47
2022-10-23T13:04:56.121Z,97467.13
2022-10-23T13:07:27.737Z,97467.13
2022-10-23T13:09:58.975Z,97459.63
2022-10-23T13:12:29.421Z,97461.09
2022-10-23T13:15:03.377Z,97452.59
2022-10-23T13:17:38.704Z,97443.31
2022-10-23T13:20:17.610Z,97446.44
2022-10-23T13:22:46.630Z,97446.44
2022-10-23T13:25:25.357Z,97452.50
2022-10-23T13:28:27.187Z,97452.53
2022-10-23T13:31:26.375Z,97445.31
2022-10-23T13:34:19.118Z,97434.53
2022-10-23T13:37:01.251Z,97434.53
2022-10-23T13:39:32.661Z,97429.53
2022-10-23T13:42:12.735Z,97440.13
2022-10-23T13:44:41.823Z,97424.78
2022-10-23T13:47:14.127Z,97419.81
2022-10-23T13:49:42.363Z,97422.94
2022-10-23T13:52:14.610Z,97426.09
2022-10-23T13:54:43.615Z,97418.66
2022-10-23T13:57:16.376Z,97420.13
2022-10-23T13:59:44.673Z,97418.69
2022-10-23T14:02:21.380Z,97418.91
2022-10-23T14:04:50.237Z,97416.44
2022-10-23T14:07:18.872Z,97414.81
2022-10-23T14:09:47.916Z,97422.66
2022-10-23T14:12:22.441Z,97408.34
2022-10-23T14:14:52.773Z,97407.53
2022-10-23T14:17:22.071Z,97405.66
2022-10-23T14:19:51.105Z,97401.09
2022-10-23T14:22:19.345Z,97399.44
2022-10-23T14:24:47.572Z,97406.50
2022-10-23T14:27:15.891Z,97413.13
2022-10-23T14:29:45.561Z,97404.25
2022-10-23T14:32:13.872Z,97408.78
2022-10-23T14:34:43.943Z,97395.72
2022-10-23T14:37:12.333Z,97415.44
2022-10-23T14:39:40.579Z,97405.66
2022-10-23T14:42:08.906Z,97406.09
2022-10-23T14:47:11.793Z,97401.16
2022-10-23T14:49:41.231Z,97405.34
2022-10-23T14:52:09.852Z,97406.00
2022-10-23T14:54:38.687Z,97402.94
2022-10-23T14:57:06.970Z,97405.44
2022-10-23T14:59:35.489Z,97398.00
2022-10-23T15:02:03.786Z,97407.78
2022-10-23T15:04:33.461Z,97409.25
2022-10-23T15:07:01.766Z,97396.44
2022-10-23T15:09:32.493Z,97398.75
2022-10-23T15:12:00.814Z,97394.00
2022-10-23T15:14:29.113Z,97399.00
2022-10-23T15:16:57.403Z,97396.94
2022-10-23T15:19:27.210Z,97385.81
2022-10-23T15:21:57.004Z,97384.34
2022-10-23T15:24:26.634Z,97381.50
2022-10-23T15:26:54.909Z,97382.69
2022-10-23T15:29:23.228Z,97381.47
2022-10-23T15:31:56.379Z,97376.75
2022-10-23T15:34:27.393Z,97378.00
2022-10-23T15:36:58.807Z,97374.06
2022-10-23T15:39:33.759Z,97366.41
2022-10-23T15:42:04.994Z,97366.84
2022-10-23T15:44:34.800Z,97371.03
2022-10-23T15:47:03.292Z,97374.34
2022-10-23T15:49:31.833Z,97374.16
2022-10-23T15:52:02.372Z,97372.13
2022-10-23T15:54:32.833Z,97376.47
2022-10-23T15:57:02.213Z,97383.31
2022-10-23T15:59:32.481Z,97381.69
2022-10-23T16:02:01.453Z,97383.38
2022-10-23T16:04:29.921Z,97388.75
2022-10-23T16:06:58.277Z,97377.97
2022-10-23T16:09:28.042Z,97377.19
2022-10-23T16:11:56.372Z,97377.22
2022-10-23T16:14:24.747Z,97375.56
2022-10-23T16:16:53.024Z,97369.56
2022-10-23T16:19:21.381Z,97365.84
2022-10-23T16:21:49.807Z,97370.41
2022-10-23T16:24:18.130Z,97367.72
2022-10-23T16:26:53.039Z,97362.56
2022-10-23T16:29:22.110Z,97367.72
2022-10-23T16:31:50.950Z,97365.88
2022-10-23T16:34:19.380Z,97373.88
2022-10-23T16:36:48.366Z,97369.75
2022-10-23T16:39:20.177Z,97375.13
2022-10-23T16:41:49.947Z,97379.44
2022-10-23T16:44:18.372Z,97375.94
2022-10-23T16:46:46.774Z,97378.41
2022-10-23T16:49:15.468Z,97373.66
2022-10-23T16:51:43.759Z,97379.63
2022-10-23T16:54:12.116Z,97377.75
2022-10-23T16:56:40.427Z,97381.06
2022-10-23T16:59:11.174Z,97374.63
2022-10-23T17:01:39.696Z,97377.09
2022-10-23T17:04:09.360Z,97380.38
2022-10-23T17:06:38.068Z,97374.56
2022-10-23T17:09:06.969Z,97381.38
2022-10-23T17:11:38.435Z,97382.16
2022-10-23T17:14:11.616Z,97369.97
2022-10-23T17:16:43.063Z,97380.28
2022-10-23T17:19:20.526Z,97378.00
2022-10-23T17:21:56.421Z,97376.75
2022-10-23T17:24:25.587Z,97386.00
2022-10-23T17:26:54.701Z,97378.34
2022-10-23T17:29:24.440Z,97383.50
2022-10-23T17:31:53.102Z,97388.41
2022-10-23T17:34:24.887Z,97389.00
2022-10-23T17:36:55.693Z,97380.53
2022-10-23T17:39:27.359Z,97380.97
2022-10-23T17:41:56.499Z,97383.00
2022-10-23T17:44:26.444Z,97375.34
2022-10-23T17:46:56.199Z,97385.44
2022-10-23T17:49:25.810Z,97385.81
2022-10-23T17:51:55.997Z,97381.91
2022-10-23T17:54:26.641Z,97380.44
2022-10-23T17:56:55.106Z,97368.25
2022-10-23T17:59:25.223Z,97357.94
2022-10-23T18:01:53.794Z,97365.53
2022-10-23T18:04:22.940Z,97376.66
2022-10-23T18:06:54.405Z,97384.25
2022-10-23T18:09:23.777Z,97392.50
2022-10-23T18:11:52.870Z,97382.56
2022-10-23T18:14:24.316Z,97392.44
2022-10-23T18:16:58.969Z,97392.78
2022-10-23T18:19:30.775Z,97397.53
2022-10-23T18:22:03.378Z,97397.09
2022-10-23T18:24:32.083Z,97401.81
2022-10-23T18:27:00.488Z,97399.72
2022-10-23T18:29:28.799Z,97387.53
2022-10-23T18:31:58.421Z,97397.00
2022-10-23T18:34:27.184Z,97387.69
2022-10-23T18:36:56.536Z,97397.75
2022-10-23T18:39:26.981Z,97404.53
2022-10-23T18:41:57.713Z,97388.84
2022-10-23T18:44:29.082Z,97399.94
2022-10-23T18:47:00.418Z,97380.09
2022-10-23T18:49:29.249Z,97378.66
2022-10-23T18:51:58.308Z,97371.00
2022-10-23T18:54:26.591Z,97371.59
2022-10-23T18:56:54.932Z,97385.16
2022-10-23T18:59:23.433Z,97386.38
2022-10-23T19:01:52.245Z,97383.25
2022-10-23T19:04:21.973Z,97374.78
2022-10-23T19:06:51.832Z,97375.00
2022-10-23T19:09:20.917Z,97372.50
2022-10-23T19:11:49.312Z,97379.03
2022-10-23T19:14:17.589Z,97380.25
2022-10-23T19:16:55.971Z,97379.81
2022-10-23T19:19:29.955Z,97383.50
2022-10-23T19:21:59.087Z,97372.16
2022-10-23T19:24:33.640Z,97380.56
2022-10-23T19:27:03.121Z,97376.44
2022-10-23T19:29:32.310Z,97373.94
2022-10-23T19:32:00.872Z,97378.63
2022-10-23T19:34:30.601Z,97355.09
2022-10-23T19:36:58.887Z,97342.13
2022-10-23T19:39:27.384Z,97373.13
2022-10-23T19:41:56.086Z,97363.84
2022-10-23T19:44:24.455Z,97355.34
2022-10-23T19:46:52.770Z,97356.78
2022-10-23T19:49:23.842Z,97377.50
2022-10-23T19:51:53.559Z,97390.44
2022-10-23T19:54:22.949Z,97382.63
2022-10-23T19:56:51.545Z,97369.63
2022-10-23T19:59:20.245Z,97354.94
2022-10-23T20:01:49.433Z,97352.47
2022-10-23T20:04:19.176Z,97360.06
2022-10-23T20:06:48.049Z,97368.25
2022-10-23T20:09:18.003Z,97365.78
2022-10-23T20:11:46.358Z,97360.63
2022-10-23T20:14:15.100Z,97370.66
2022-10-23T20:16:46.875Z,97379.69
2022-10-23T20:21:51.020Z,97377.59
2022-10-23T20:24:21.897Z,97415.00
2022-10-23T20:26:52.873Z,97389.69
2022-10-23T20:29:22.307Z,97384.06
2022-10-23T20:31:50.658Z,97405.81
2022-10-23T20:34:20.077Z,97398.16
2022-10-23T20:36:50.818Z,97389.84
2022-10-23T20:39:25.446Z,97390.03
2022-10-23T20:41:55.603Z,97406.25
2022-10-23T20:44:24.788Z,97418.81
2022-10-23T20:46:53.742Z,97407.47
2022-10-23T20:49:23.443Z,97415.28
2022-10-23T20:51:55.174Z,97413.16
2022-10-23T20:54:26.016Z,97429.69
2022-10-23T20:56:54.299Z,97427.81
2022-10-23T20:59:22.581Z,97420.63
2022-10-23T21:01:53.104Z,97423.13
2022-10-23T21:04:26.319Z,97431.31
2022-10-23T21:07:12.906Z,97444.50
2022-10-23T21:09:42.571Z,97446.34
2022-10-23T21:12:11.178Z,97451.50
2022-10-23T21:14:39.545Z,97435.47
2022-10-23T21:17:10.684Z,97442.50
2022-10-23T21:19:40.338Z,97444.13
2022-10-23T21:22:08.568Z,97456.66
2022-10-23T21:24:36.772Z,97458.53
2022-10-23T21:27:06.502Z,97467.53
2022-10-23T21:29:34.778Z,97467.34
2022-10-23T21:32:02.973Z,97464.66
2022-10-23T21:34:32.454Z,97478.03
2022-10-23T21:37:17.658Z,97471.88
2022-10-23T21:39:47.119Z,97482.56
2022-10-23T21:42:16.762Z,97510.09
2022-10-23T21:44:45.276Z,97516.28
2022-10-23T21:47:14.147Z,97520.78
2022-10-23T21:49:42.396Z,97537.66
2022-10-23T21:52:10.647Z,97548.16
2022-10-23T21:54:38.873Z,97542.16
2022-10-23T21:57:16.418Z,97532.50
2022-10-23T21:59:46.257Z,97542.34
2022-10-23T22:02:14.728Z,97527.34
2022-10-23T22:04:43.376Z,97523.19
2022-10-23T22:07:14.860Z,97526.84
2022-10-23T22:09:43.884Z,97540.41
2022-10-23T22:12:13.116Z,97541.25
2022-10-23T22:14:41.400Z,97533.78
2022-10-23T22:17:10.990Z,97546.94
2022-10-23T22:19:39.239Z,97552.47
2022-10-23T22:22:07.492Z,97549.78
2022-10-23T22:24:37.613Z,97543.75
2022-10-23T22:27:05.938Z,97535.13
2022-10-23T22:29:34.449Z,97550.13
2022-10-23T22:32:02.853Z,97544.97
2022-10-23T22:34:53.095Z,97545.81
2022-10-23T22:37:21.361Z,97557.31
2022-10-23T22:39:52.409Z,97567.97
2022-10-23T22:42:21.041Z,97559.16
2022-10-23T22:44:49.246Z,97563.47
2022-10-23T22:47:17.474Z,97566.16
2022-10-23T22:49:47.033Z,97574.16
2022-10-23T22:52:15.245Z,97575.81
2022-10-23T22:54:43.498Z,97574.16
2022-10-23T22:57:11.692Z,97580.22
2022-10-23T22:59:40.114Z,97585.56
2022-10-23T23:02:08.430Z,97585.56
2022-10-23T23:04:38.181Z,97596.88
2022-10-23T23:07:10.230Z,97595.22
2022-10-23T23:09:40.082Z,97595.88
2022-10-23T23:12:10.373Z,97615.56
2022-10-23T23:14:39.592Z,97611.25
2022-10-23T23:17:09.244Z,97617.25
2022-10-23T23:19:37.800Z,97625.28
2022-10-23T23:22:06.250Z,97621.75
2022-10-23T23:24:35.839Z,97625.09
2022-10-23T23:27:04.125Z,97615.41
2022-10-23T23:29:32.372Z,97610.88
2022-10-23T23:32:00.636Z,97620.56
2022-10-23T23:34:29.260Z,97625.91
2022-10-23T23:36:57.489Z,97628.75
2022-10-23T23:39:26.136Z,97631.44
2022-10-23T23:41:55.852Z,97653.66
2022-10-23T23:44:24.100Z,97651.81
2022-10-23T23:46:52.324Z,97645.44
2022-10-23T23:49:20.556Z,97651.47
2022-10-23T23:51:48.797Z,97654.31
2022-10-23T23:54:17.193Z,97647.94
2022-10-23T23:56:45.421Z,97643.44
2022-10-23T23:59:15.024Z,97648.59
